Mc Camey, Texas
Current Conditions -  °F | °C
As of 2:53 AM on Thursday 27 Nov 2014 (Local Time) from KODO Reporting Station
Clear Clear  
Wind Chill: 32°   Ceiling: Unl
Heat Index: 37°   Visibility: 10mi
Dew Point: 29°   Wind: 7mph
Humidity: 73%   Direction: 80°E
Pressure: 30.41"   Gusts: NA
Location:  31.3328°N, 102.213°W
Report Text: KODO 270853Z AUTO 08006KT 10SM CLR 03/M02 A3041 RMK AO2 SLP282 T00281017 51009
Loading
Personal Weather Stations






























Interactive Weather Map New forecast layout! Learn more

10-Day Weather Forecast

Advertisements
Track Severe Weather on mobile